Flight Track Log - Related Links

Times and Time Zones

All times are in EDT time to prevent confusion due to time zone crossing. See the AWE834 flight status page for this flight to view local times or setup timezone preferences in your user account.

Time Position Orientation Groundspeed Altitude Reporting Facility
EDT Latitude Longitude Course Direction KTS MPH feet Rate Location/Type
Tue 07:19:10 PM 39.8667 -75.2667 270° West 142 163 700  Level Philadelphia TRACON
Tue 07:19:58 PM 39.8500 -75.3167 247° West 171 197 1,700 2,179 Climbing Philadelphia TRACON
Tue 07:22:00 PM 39.9000 -75.8206 270° West  Level FlightAware Approximate
Tue 07:22:09 PM 39.8378 -75.4911 265° West 236 272 7,200  Level New York Center
Tue 07:23:00 PM 39.9000 -75.9721 270° West  Level FlightAware Approximate
Tue 07:23:09 PM 39.8442 -75.5864 275° West 258 297 9,900  Level New York Center
Tue 07:24:00 PM 39.9000 -76.1236 270° West  Level FlightAware Approximate
Tue 07:25:09 PM 39.8664 -75.8042 278° West 316 364 13,200  Level New York Center
Tue 07:26:09 PM 39.8825 -75.9161 281° West 316 364 15,400 2,250 Climbing New York Center
Tue 07:27:09 PM 39.8939 -76.0333 277° West 321 369 17,700 2,150 Climbing New York Center
Tue 07:28:09 PM 39.9053 -76.1508 277° West 339 390 19,700 2,050 Climbing New York Center
Tue 07:29:09 PM 39.9114 -76.2892 273° West 352 405 21,800 2,350 Climbing New York Center
Tue 07:30:09 PM 39.9178 -76.4169 274° West 358 412 24,400 2,400 Climbing New York Center
Tue 07:31:09 PM 39.9228 -76.5339 273° West 347 399 26,600 1,950 Climbing New York Center
Tue 07:32:09 PM 39.9253 -76.6478 272° West 336 387 28,300 1,539 Climbing New York Center
Tue 07:33:41 PM 39.9325 -76.8186 273° West 315 362 30,500 1,403 Climbing Cleveland Center
Tue 07:34:43 PM 39.9375 -76.9294 273° West 313 360 31,900 1,210 Climbing Cleveland Center
Tue 07:35:45 PM 39.9411 -77.0361 273° West 303 349 33,000 968 Climbing Cleveland Center
Tue 07:36:47 PM 39.9456 -77.1422 273° West 299 344 33,900 774 Climbing Cleveland Center
Tue 07:37:49 PM 39.9494 -77.2481 273° West 299 344 34,600 726 Climbing Cleveland Center
Tue 07:38:51 PM 39.9528 -77.3561 272° West 299 344 35,400 677 Climbing Cleveland Center
Tue 07:39:53 PM 39.9572 -77.4856 273° West 299 344 36,000 290 Climbing Cleveland Center
Tue 07:40:55 PM 39.9608 -77.5947 273° West 299 344 36,000  Level Cleveland Center
Tue 07:41:57 PM 39.9642 -77.7106 272° West 305 351 36,000  Level Cleveland Center
Tue 07:42:59 PM 39.9681 -77.8306 272° West 316 364 36,000  Level Cleveland Center
Tue 07:44:01 PM 39.9717 -77.9550 272° West 331 381 36,000  Level Cleveland Center
Tue 07:45:03 PM 39.9744 -78.0753 272° West 334 384 36,000  Level Cleveland Center
Tue 07:46:05 PM 39.9783 -78.2236 272° West 336 387 36,000  Level Cleveland Center
Tue 07:47:07 PM 39.9822 -78.3453 272° West 337 388 36,000  Level Cleveland Center
Tue 07:49:11 PM 39.9869 -78.6017 271° West 351 404 36,000  Level Cleveland Center
Tue 07:51:15 PM 39.9928 -78.8597 272° West 355 409 36,000  Level Cleveland Center
Tue 07:52:17 PM 39.9964 -78.9956 272° West 362 417 36,000  Level Cleveland Center
Tue 07:53:19 PM 39.9989 -79.1586 271° West 373 429 36,000  Level Cleveland Center
Tue 07:54:21 PM 40.0017 -79.2928 272° West 372 428 36,000  Level Cleveland Center
Tue 07:55:23 PM 40.0031 -79.4278 271° West 372 428 36,000  Level Cleveland Center
Tue 07:56:25 PM 40.0056 -79.5625 271° West 372 428 36,000  Level Cleveland Center
Tue 07:57:27 PM 40.0069 -79.7000 271° West 373 429 36,000  Level Cleveland Center
Tue 07:58:29 PM 40.0094 -79.8375 271° West 374 430 36,000  Level Cleveland Center
Tue 07:59:31 PM 40.0108 -79.9750 271° West 375 432 36,000  Level Cleveland Center
Tue 08:00:33 PM 40.0131 -80.1411 271° West 376 433 36,000  Level Cleveland Center
Tue 08:01:35 PM 40.0133 -80.2781 270° West 376 433 36,000  Level Cleveland Center
Tue 08:02:37 PM 40.0156 -80.4161 271° West 377 434 36,000  Level Cleveland Center
Tue 08:03:39 PM 40.0153 -80.5522 270° West 377 434 36,000  Level Cleveland Center
Tue 08:04:41 PM 40.0167 -80.6892 271° West 377 434 36,000  Level Cleveland Center
Tue 08:05:43 PM 40.0169 -80.8258 270° West 377 434 36,000  Level Cleveland Center
Tue 08:07:25 PM 40.0128 -81.0586 269° West 377 434 36,000  Level Indianapolis Center
Tue 08:08:27 PM 40.0111 -81.2253 269° West 385 443 36,000  Level Indianapolis Center
Tue 08:09:28 PM 40.0081 -81.3689 268° West 389 448 36,000  Level Indianapolis Center
Tue 08:10:30 PM 40.0064 -81.5122 269° West 389 448 36,000  Level Indianapolis Center
Tue 08:11:32 PM 40.0033 -81.6572 268° West 392 451 36,000  Level Indianapolis Center
Tue 08:12:34 PM 40.0000 -81.8036 268° West 394 453 36,000  Level Indianapolis Center
Tue 08:13:36 PM 39.9967 -81.9469 268° West 395 455 36,000  Level Indianapolis Center
Tue 08:14:37 PM 39.9939 -82.0914 269° West 396 456 36,000  Level Indianapolis Center
Tue 08:15:39 PM 39.9894 -82.2375 268° West 398 458 36,000  Level Indianapolis Center
Tue 08:16:41 PM 39.9850 -82.4133 268° West 403 464 36,000  Level Indianapolis Center
Tue 08:17:43 PM 39.9803 -82.5625 268° West 408 470 36,000  Level Indianapolis Center
Tue 08:18:45 PM 39.9750 -82.7119 267° West 410 472 36,000  Level Indianapolis Center
Tue 08:19:46 PM 39.9597 -82.8589 262° West 409 471 36,000  Level Indianapolis Center
Tue 08:21:50 PM 39.9108 -83.1494 258° West 409 471 36,000  Level Indianapolis Center
Tue 08:22:52 PM 39.8858 -83.2947 257° West 410 472 36,000  Level Indianapolis Center
Tue 08:23:54 PM 39.8808 -83.4653 268° West 415 478 36,000  Level Indianapolis Center
Tue 08:24:56 PM 39.8792 -83.6158 269° West 416 479 36,000  Level Indianapolis Center
Tue 08:25:58 PM 39.8769 -83.7667 269° West 418 481 36,000  Level Indianapolis Center
Tue 08:26:59 PM 39.8750 -83.9186 269° West 420 483 36,000  Level Indianapolis Center
Tue 08:28:01 PM 39.8728 -84.0986 269° West 419 482 36,000  Level Indianapolis Center
Tue 08:29:03 PM 39.8700 -84.2500 269° West 419 482 36,000  Level Indianapolis Center
Tue 08:30:05 PM 39.8675 -84.4033 269° West 421 484 36,000  Level Indianapolis Center
Tue 08:31:07 PM 39.8650 -84.5572 269° West 422 486 36,000  Level Indianapolis Center
Tue 08:32:08 PM 39.8614 -84.7114 268° West 423 487 36,000  Level Indianapolis Center
Tue 08:33:10 PM 39.8581 -84.8656 268° West 424 488 36,000  Level Indianapolis Center
Tue 08:35:14 PM 39.8492 -85.1928 268° West 432 497 36,000  Level Indianapolis Center
Tue 08:36:15 PM 39.8461 -85.3472 269° West 432 497 36,000  Level Indianapolis Center
Tue 08:37:17 PM 39.8028 -85.5239 252° West 436 502 36,000  Level Indianapolis Center
Tue 08:38:19 PM 39.7450 -85.6606 241° Southwest 436 502 36,000  Level Indianapolis Center
Tue 08:39:21 PM 39.6872 -85.7992 242° Southwest 436 502 36,000  Level Indianapolis Center
Tue 08:40:22 PM 39.6281 -85.9386 241° Southwest 436 502 36,000  Level Indianapolis Center
Tue 08:41:24 PM 39.5681 -86.0781 241° Southwest 436 502 36,000  Level Indianapolis Center
Tue 08:42:25 PM 39.5078 -86.2186 241° Southwest 437 503 36,000  Level Indianapolis Center
Tue 08:43:27 PM 39.4478 -86.3586 241° Southwest 438 504 36,000  Level Indianapolis Center
Tue 08:44:29 PM 39.3878 -86.4986 241° Southwest 439 505 36,000  Level Indianapolis Center
Tue 08:45:30 PM 39.3281 -86.6375 241° Southwest 439 505 36,000  Level Indianapolis Center
Tue 08:46:32 PM 39.2672 -86.7742 240° Southwest 440 506 36,000  Level Indianapolis Center
Tue 08:47:33 PM 39.2067 -86.9125 241° Southwest 440 506 36,000  Level Indianapolis Center
Tue 08:48:35 PM 39.1347 -87.0772 241° Southwest 440 506 36,000  Level Indianapolis Center
Tue 08:49:37 PM 39.0786 -87.2028 240° Southwest 440 506 36,000  Level Indianapolis Center
Tue 08:51:25 PM 38.9678 -87.4506 240° Southwest 441 507 36,000  Level Kansas City Center
Tue 08:52:26 PM 38.9064 -87.5878 240° Southwest 441 507 36,000  Level Kansas City Center
Tue 08:53:13 PM 38.8542 -87.7081 241° Southwest 443 510 36,000  Level Memphis Center
Tue 08:53:43 PM 38.8217 -87.7800 240° Southwest 445 512 36,000  Level Indianapolis Center
Tue 08:55:16 PM 38.7283 -87.9856 240° Southwest 446 513 36,000  Level Memphis Center
Tue 08:55:46 PM 38.6969 -88.0553 240° Southwest 445 512 36,000  Level Indianapolis Center
Tue 08:56:33 PM 38.6458 -88.1653 239° Southwest 443 510 36,000  Level Kansas City Center
Tue 08:57:49 PM 38.5717 -88.3308 240° Southwest 446 513 36,000  Level Indianapolis Center
Tue 08:58:50 PM 38.5078 -88.4683 239° Southwest 447 514 36,000  Level Indianapolis Center
Tue 08:59:39 PM 38.4561 -88.5789 239° Southwest 446 513 36,000  Level Kansas City Center
Tue 09:00:40 PM 38.3822 -88.7425 240° Southwest 457 526 36,000  Level Kansas City Center
Tue 09:01:42 PM 38.3181 -88.8825 240° Southwest 453 521 36,000  Level Kansas City Center
Tue 09:02:44 PM 38.2528 -89.0203 239° Southwest 453 521 36,000  Level Kansas City Center
Tue 09:03:45 PM 38.1878 -89.1581 239° Southwest 453 521 36,000  Level Kansas City Center
Tue 09:04:47 PM 38.1231 -89.2961 239° Southwest 454 522 36,000  Level Kansas City Center
Tue 09:05:49 PM 38.0575 -89.4333 239° Southwest 454 522 36,000  Level Kansas City Center
Tue 09:06:50 PM 37.9919 -89.5717 239° Southwest 454 522 36,000  Level Kansas City Center
Tue 09:08:34 PM 37.8803 -89.8050 239° Southwest 456 525 36,000  Level Memphis Center
Tue 09:09:35 PM 37.7997 -89.9708 238° Southwest 462 532 36,000  Level Memphis Center
Tue 09:10:37 PM 37.7333 -90.1081 239° Southwest 462 532 36,000  Level Memphis Center
Tue 09:11:38 PM 37.6669 -90.2464 239° Southwest 462 532 36,000  Level Memphis Center
Tue 09:12:39 PM 37.5936 -90.3819 236° Southwest 466 536 36,000  Level Memphis Center
Tue 09:13:41 PM 37.5217 -90.5164 236° Southwest 466 536 36,000  Level Memphis Center
Tue 09:14:42 PM 37.4478 -90.6528 236° Southwest 466 536 36,000  Level Memphis Center
Tue 09:15:43 PM 37.3739 -90.7906 236° Southwest 466 536 36,000  Level Memphis Center
Tue 09:16:44 PM 37.2986 -90.9275 235° Southwest 468 539 36,000  Level Memphis Center
Tue 09:17:46 PM 37.2247 -91.0642 236° Southwest 468 539 36,000  Level Memphis Center
Tue 09:18:47 PM 37.1511 -91.1994 236° Southwest 468 539 36,000  Level Memphis Center
Tue 09:19:48 PM 37.0758 -91.3364 235° Southwest 469 540 36,000  Level Memphis Center
Tue 09:20:50 PM 36.9997 -91.4744 235° Southwest 471 542 36,000  Level Memphis Center
Tue 09:21:51 PM 36.9078 -91.6392 235° Southwest 477 549 36,000  Level Memphis Center
Tue 09:22:52 PM 36.8314 -91.7758 235° Southwest 478 550 36,000  Level Memphis Center
Tue 09:23:53 PM 36.7561 -91.9128 236° Southwest 478 550 36,000  Level Memphis Center
Tue 09:24:55 PM 36.6786 -92.0492 235° Southwest 478 550 36,000  Level Memphis Center
Tue 09:25:56 PM 36.6028 -92.1856 235° Southwest 478 550 36,000  Level Memphis Center
Tue 09:26:57 PM 36.5258 -92.3203 235° Southwest 477 549 36,000  Level Memphis Center
Tue 09:27:58 PM 36.4492 -92.4558 235° Southwest 478 550 36,000  Level Memphis Center
Tue 09:28:59 PM 36.3714 -92.5906 234° Southwest 479 551 36,000  Level Memphis Center
Tue 09:30:01 PM 36.2956 -92.7250 235° Southwest 479 551 36,000  Level Memphis Center
Tue 09:31:02 PM 36.2189 -92.8586 235° Southwest 478 550 36,000  Level Memphis Center
Tue 09:32:03 PM 36.1422 -92.9914 234° Southwest 478 550 36,000  Level Memphis Center
Tue 09:33:04 PM 36.0656 -93.1239 234° Southwest 478 550 36,000  Level Memphis Center
Tue 09:34:05 PM 35.9728 -93.2822 234° Southwest 478 550 36,000  Level Memphis Center
Tue 09:35:07 PM 35.8961 -93.4122 234° Southwest 478 550 36,000  Level Memphis Center
Tue 09:36:08 PM 35.8203 -93.5433 235° Southwest 477 549 36,000  Level Memphis Center
Tue 09:37:09 PM 35.7442 -93.6742 234° Southwest 476 548 36,000  Level Memphis Center
Tue 09:38:10 PM 35.6656 -93.8064 234° Southwest 477 549 36,000  Level Memphis Center
Tue 09:39:11 PM 35.5872 -93.9381 234° Southwest 478 550 36,000  Level Memphis Center
Tue 09:40:12 PM 35.5086 -94.0692 234° Southwest 478 550 36,000  Level Memphis Center
Tue 09:41:14 PM 35.4306 -94.2008 234° Southwest 478 550 36,000  Level Memphis Center
Tue 09:42:15 PM 35.3189 -94.3314 224° Southwest 486 559 36,000  Level Memphis Center
Tue 09:43:16 PM 35.2022 -94.4294 214° Southwest 492 566 36,000  Level Memphis Center
Tue 09:44:17 PM 35.0889 -94.5242 214° Southwest 492 566 36,000  Level Memphis Center
Tue 09:45:18 PM 34.9783 -94.6153 214° Southwest 488 562 36,000  Level Memphis Center
Tue 09:46:20 PM 34.8708 -94.7075 215° Southwest 483 556 36,000  Level Memphis Center
Tue 09:46:52 PM 34.8022 -94.7642 214° Southwest 483 556 36,000  Level Fort Worth Center
Tue 09:47:53 PM 34.6911 -94.8569 214° Southwest 484 557 36,000  Level Fort Worth Center
Tue 09:48:55 PM 34.5797 -94.9492 214° Southwest 484 557 36,000  Level Fort Worth Center
Tue 09:49:56 PM 34.4692 -95.0417 215° Southwest 484 557 36,000  Level Fort Worth Center
Tue 09:50:58 PM 34.3569 -95.1331 214° Southwest 485 558 36,000  Level Fort Worth Center
Tue 09:51:59 PM 34.2450 -95.2253 214° Southwest 485 558 36,000  Level Fort Worth Center
Tue 09:53:01 PM 34.1111 -95.3350 214° Southwest 486 559 36,000  Level Fort Worth Center
Tue 09:54:03 PM 33.9989 -95.4261 214° Southwest 486 559 36,000  Level Fort Worth Center
Tue 09:55:04 PM 33.8886 -95.5167 214° Southwest 485 558 36,000  Level Fort Worth Center
Tue 09:56:06 PM 33.7753 -95.6086 214° Southwest 484 557 36,000  Level Fort Worth Center
Tue 09:57:07 PM 33.6631 -95.6983 214° Southwest 484 557 36,000  Level Fort Worth Center
Tue 09:58:09 PM 33.5511 -95.7894 214° Southwest 485 558 36,000  Level Fort Worth Center
Tue 09:59:10 PM 33.4417 -95.8786 214° Southwest 479 551 36,000  Level Fort Worth Center
Tue 10:00:12 PM 33.3300 -95.9664 213° Southwest 480 552 36,000  Level Fort Worth Center
Tue 10:01:13 PM 33.1958 -96.0717 213° Southwest 480 552 36,000  Level Fort Worth Center
Tue 10:02:15 PM 33.0853 -96.1608 214° Southwest 480 552 36,000  Level Fort Worth Center
Tue 10:03:16 PM 32.9744 -96.2486 214° Southwest 479 551 36,000  Level Fort Worth Center
Tue 10:04:17 PM 32.8636 -96.3358 213° Southwest 479 551 36,000  Level Fort Worth Center
Tue 10:05:19 PM 32.7525 -96.4225 213° Southwest 478 550 36,000  Level Fort Worth Center
Tue 10:06:20 PM 32.6439 -96.5083 214° Southwest 469 540 36,000  Level Fort Worth Center
Tue 10:07:22 PM 32.5353 -96.5950 214° Southwest 469 540 36,000  Level Fort Worth Center
Tue 10:08:23 PM 32.4267 -96.6806 214° Southwest 468 539 36,000  Level Fort Worth Center
Tue 10:09:25 PM 32.3211 -96.7617 213° Southwest 454 522 36,000  Level Fort Worth Center
Tue 10:10:26 PM 32.2167 -96.8442 214° Southwest 451 519 36,000 -49 Level Fort Worth Center
Tue 10:11:28 PM 32.1131 -96.9222 213° Southwest 447 514 35,900 -634 Descending Fort Worth Center
Tue 10:12:29 PM 31.9900 -97.0172 213° Southwest 440 506 34,700 -1,230 Descending Fort Worth Center
Tue 10:13:30 PM 31.8897 -97.0950 213° Southwest 453 521 33,400 -1,268 Descending Fort Worth Center
Tue 10:14:32 PM 31.7808 -97.1783 213° Southwest 463 533 32,100 -1,317 Descending Fort Worth Center
Tue 10:15:33 PM 31.6644 -97.2489 207° Southwest 478 550 30,700 -1,024 Descending Fort Worth Center
Tue 10:16:35 PM 31.5286 -97.2506 181° South 494 568 30,000 -341 Descending Fort Worth Center
Tue 10:17:36 PM 31.3906 -97.2328 174° South 496 571 30,000  Level Fort Worth Center
Tue 10:18:38 PM 31.2536 -97.2144 173° South 496 571 30,000  Level Fort Worth Center
Tue 10:19:39 PM 31.0983 -97.2525 192° South 478 550 30,000  Level Fort Worth Center
Tue 10:20:40 PM 30.9894 -97.2931 198° South 477 549 30,000 -585 Level Fort Worth Center
Tue 10:21:42 PM 30.8553 -97.3458 199° South 478 550 28,800 -1,512 Descending Fort Worth Center
Tue 10:22:43 PM 30.7347 -97.3928 199° South 463 533 26,900 -1,854 Descending Fort Worth Center
Tue 10:23:45 PM 30.6161 -97.4386 198° South 451 519 25,000 -2,000 Descending Fort Worth Center
Tue 10:24:46 PM 30.4750 -97.4917 198° South 449 517 22,800 -1,967 Descending Fort Worth Center
Tue 10:25:47 PM 30.3639 -97.5378 200° South 432 497 21,000 -1,707 Descending Fort Worth Center
Tue 10:26:49 PM 30.2669 -97.6058 211° Southwest 410 472 19,300 -1,610 Descending Fort Worth Center
Tue 10:27:50 PM 30.1714 -97.6719 211° Southwest 406 467 17,700 -1,623 Descending Fort Worth Center
Tue 10:28:51 PM 30.0778 -97.7364 211° Southwest 396 456 16,000 -1,740 Descending Fort Worth Center
Tue 10:30:01 PM 29.9597 -97.8178 211° Southwest 386 444 13,900 -1,786 Descending Houston Center
Tue 10:30:15 PM 29.9406 -97.8319 213° Southwest 387 445 13,500 -885 Descending Houston Center
Tue 10:31:02 PM 29.8850 -97.8947 224° Southwest 369 425 13,000 -885 Descending Houston Center
Tue 10:31:16 PM 29.8739 -97.9167 240° Southwest 359 413 12,600 -1,475 Descending Houston Center
Tue 10:32:03 PM 29.8419 -97.9917 244° Southwest 338 389 11,500 -1,279 Descending Houston Center
Tue 10:32:17 PM 29.8336 -98.0136 246° West 336 387 11,300 -1,440 Descending Houston Center
Tue 10:33:18 PM 29.7942 -98.0947 241° Southwest 298 343 9,700 -1,434 Descending Houston Center
Tue 10:34:10 PM 29.7236 -98.1389 209° Southwest 303 349 8,600 -1,327 Descending Houston Center
Tue 10:35:11 PM 29.6542 -98.1836 209° Southwest 284 327 7,200 -1,488 Descending Houston Center
Tue 10:36:11 PM 29.5892 -98.2300 212° Southwest 270 311 5,600 -1,629 Descending Houston Center
Tue 10:36:21 PM 29.5803 -98.2381 218° Southwest 273 314 5,300 -1,475 Descending Houston Center
Tue 10:37:12 PM 29.5292 -98.2831 217° Southwest 266 306 4,100 -1,279 Descending Houston Center
Tue 10:37:22 PM 29.5206 -98.2900 215° Southwest 272 313 4,000 -845 Descending Houston Center
Tue 10:38:23 PM 29.4653 -98.3367 216° Southwest 246 283 3,100 -571 Descending Houston Center
Tue 10:39:07 PM 29.4375 -98.3831 235° Southwest 217 250 3,000 -98 Descending Houston Center
Tue 10:39:24 PM 29.4317 -98.3958 242° Southwest 223 257 3,000  Level Houston Center
Tue 10:40:02 PM 29.4153 -98.4383 246° West 205 236 3,000 -197 Level Houston Center
Tue 10:40:25 PM 29.4228 -98.4597 292° West 197 227 2,800 -500 Descending Houston Center
Tue 10:41:02 PM 29.4389 -98.4883 303° West 167 192 2,500 -393 Descending Houston Center
Tue 10:41:26 PM 29.4522 -98.5022 318° Northwest 175 201 2,400 -492 Descending Houston Center
Tue 10:42:03 PM 29.4767 -98.5125 340° North 150 173 2,000 -774 Descending Houston Center
Tue 10:42:28 PM 29.4897 -98.5039 30° Northeast 145 167 1,600 -787 Descending Houston Center
Tue 10:43:04 PM 29.5061 -98.4875 41° Northeast 123 142 1,200 -590 Descending Houston Center
Tue 10:43:29 PM 29.5167 -98.4769 41° Northeast 133 153 1,000 -480 Descending Houston Center

Login

Don't have an account? Register now (free) for customized features, flight alerts, and more!